Nearby METAR Reports

 

KIAH - dist=7 mi (11 km), dir=SSE, Houston/Intnl, Texas, USA elev=36
Updated: Sun, 18-Feb-2018 11:53am CST
Mostly cloudy
Mostly cloudy
 Wind from S
Wind: S 10 mph , 17 km/h
Temperature: 72°F , 22°C
Dew Point: 64°F , 18°C
Humidity: 78%
Barometer: 30.13 inHg , 1020.3 hPa
Clouds: Mostly cloudy
Visibility: 7 miles , 11 km
Cloud details: Mostly cloudy 900 ft
Mostly cloudy 25000 ft
2018/02/18 17:53 KIAH 181753Z 17009KT 7SM BKN009 BKN250 22/18 A3013 RMK AO2 SLP203 T02170183 10217 20150 58003
KDWH - dist=10 mi (16 km), dir=WSW, Houston/Dw Hooks, Texas, USA elev=46
Updated: Sun, 18-Feb-2018 11:53am CST
Mostly cloudy
Mostly cloudy
 Wind from SSE
Wind: SSE 8 mph , 13 km/h
Temperature: 73°F , 23°C
Dew Point: 64°F , 18°C
Humidity: 74%
Barometer: 30.13 inHg , 1020.3 hPa
Clouds: Mostly cloudy
Visibility: 9 miles , 14 km
Cloud details: Mostly cloudy 1200 ft
2018/02/18 17:53 KDWH 181753Z 15007KT 9SM BKN012 23/18 A3013 RMK AO2 SLP201 T02280183 10228 20144 58005
 
KCXO - dist=17 mi (28 km), dir=N, Conroe, Texas, USA elev=75
Updated: Sun, 18-Feb-2018 11:53am CST
Overcast
Overcast
 Wind from SSE
Wind: SSE 13 mph , 20 km/h
Temperature: 70°F , 21°C
Dew Point: 64°F , 18°C
Humidity: 83%
Barometer: 30.14 inHg , 1020.7 hPa
Clouds: Overcast
Visibility: 10 miles , 16 km
Cloud details: Overcast 1200 ft
2018/02/18 17:53 KCXO 181753Z 16011KT 10SM OVC012 21/18 A3014 RMK AO2 SLP204 T02060183 10211 20128 58002
KMCJ - dist=26 mi (43 km), dir=S, Houston/Univ, Texas, USA elev=69
Updated: Sun, 18-Feb-2018 12:15pm CST
Haze, Overcast
Haze, Overcast
 Wind from SE
Wind: SE 8 mph , 13 km/h
Temperature: 72°F , 22°C
Dew Point: 66°F , 19°C
Humidity: 83%
Barometer: 30.12 inHg , 1020 hPa
Summary: Haze
Clouds: Overcast
Visibility: 6 miles , 10 km
Cloud details: Partly cloudy 700 ft
Mostly cloudy 1200 ft
Overcast 1700 ft
2018/02/18 18:15 KMCJ 181815Z AUTO 13007KT 6SM HZ SCT007 BKN012 OVC017 22/19 A3012 RMK A01
 
K6R3 - dist=29 mi (47 km), dir=NE, Cleveland Muni, Texas, USA elev=46
Updated: Sun, 18-Feb-2018 12:15pm CST
Overcast
Overcast
 Wind from S
Wind: S 6 mph , 9 km/h
Temperature: 72°F , 22°C
Dew Point: 63°F , 17°C
Humidity: 73%
Barometer: 30.14 inHg , 1020.7 hPa
Clouds: Overcast
Visibility: 7 miles , 11 km
Cloud details: Overcast 1100 ft
2018/02/18 18:15 K6R3 181815Z AUTO 17005KT 7SM OVC011 22/17 A3014 RMK AO2 T02150171
KHOU - dist=33 mi (53 km), dir=SSE, Houston/Hobby, Texas, USA elev=36
Updated: Sun, 18-Feb-2018 12:01pm CST
Mostly cloudy
Mostly cloudy
 Wind from ESE
Wind: ESE 7 mph , 11 km/h
Temperature: 72°F , 22°C
Dew Point: 68°F , 20°C
Humidity: 88%
Barometer: 30.12 inHg , 1020 hPa
Clouds: Mostly cloudy
Visibility: 10 miles , 16 km
Cloud details: Mostly cloudy 1100 ft
Mostly cloudy 25000 ft
2018/02/18 18:01 KHOU 181801Z 12006KT 10SM BKN011 BKN250 22/20 A3012 RMK AO2 T02220200
 
KSGR - dist=37 mi (59 km), dir=SSW, Houston/Sugar La, Texas, USA elev=2
Updated: Sun, 18-Feb-2018 11:53am CST
Mostly cloudy
Mostly cloudy
 Wind from SSE
Wind: SSE 10 mph , 17 km/h
Temperature: 75°F , 24°C
Dew Point: 66°F , 19°C
Humidity: 74%
Barometer: 30.12 inHg , 1020 hPa
Clouds: Mostly cloudy
Visibility: 10 miles , 16 km
Cloud details: Mostly cloudy 1200 ft
2018/02/18 17:53 KSGR 181753Z 16009KT 10SM BKN012 24/19 A3012 RMK AO2 SLP201 T02440194 10244 20172 58007
KTME - dist=37 mi (59 km), dir=SW, Houston Exec, Texas, USA elev=51
Updated: Sun, 18-Feb-2018 12:15pm CST
Clear
Clear
 Wind from S
Wind: S 14 mph , 22 km/h
Temperature: 77°F , 25°C
Dew Point: 66°F , 19°C
Humidity: 69%
Barometer: 30.11 inHg , 1019.6 hPa
Clouds: Clear
Visibility: 10 miles , 16 km
2018/02/18 18:15 KTME 181815Z AUTO 17012KT 10SM CLR 25/19 A3011 RMK AO2
 
KEFD - dist=37 mi (60 km), dir=SSE, Houston/Ellingto, Texas, USA elev=10
Updated: Sun, 18-Feb-2018 11:50am CST
Mostly cloudy
Mostly cloudy
 Wind from E
Wind: E 7 mph , 11 km/h
Temperature: 73°F , 23°C
Dew Point: 68°F , 20°C
Humidity: 83%
Barometer: 30.15 inHg , 1021 hPa
Clouds: Mostly cloudy
Visibility: 7 miles , 11 km
Cloud details: Mostly cloudy 700 ft
2018/02/18 17:50 KEFD 181750Z 09006KT 7SM BKN007 23/20 A3015
KAXH - dist=41 mi (65 km), dir=S, Houston/Southwst, Texas, USA elev=21
Updated: Sun, 18-Feb-2018 12:15pm CST
Mostly cloudy
Mostly cloudy
 Wind from SSE
Wind: SSE 7 mph , 11 km/h, Gust: 17 mph , 28 km/h
Temperature: 77°F , 25°C
Dew Point: 68°F , 20°C
Humidity: 74%
Barometer: 30.12 inHg , 1020 hPa
Clouds: Mostly cloudy
Visibility: 10 miles , 16 km
Cloud details: Mostly cloudy 1200 ft
2018/02/18 18:15 KAXH 181815Z AUTO 16006G15KT 10SM BKN012 25/20 A3012 RMK AO2 T02500203
 
KLVJ - dist=41 mi (66 km), dir=SSE, Houston, Texas, USA elev=12
Updated: Sun, 18-Feb-2018 11:53am CST
Overcast
Overcast
 Wind from SE
Wind: SE 8 mph , 13 km/h
Temperature: 73°F , 23°C
Dew Point: 68°F , 20°C
Humidity: 83%
Barometer: 30.14 inHg , 1020.7 hPa
Clouds: Overcast
Visibility: 10 miles , 16 km
Cloud details: Partly cloudy 1100 ft
Mostly cloudy 1500 ft
Overcast 2100 ft
2018/02/18 17:53 KLVJ 181753Z AUTO 14007KT 10SM SCT011 BKN015 OVC021 23/20 A3014 RMK AO2 SLP206 T02280200 10228 20161 58003
KUTS - dist=46 mi (75 km), dir=NNW, Huntsville, Texas, USA elev=104
Updated: Sun, 18-Feb-2018 12:13pm CST
Overcast
Overcast
 Wind from S
Wind: S 9 mph , 15 km/h
Temperature: 66°F , 19°C
Dew Point: 63°F , 17°C
Humidity: 88%
Barometer: 30.12 inHg , 1020 hPa
Clouds: Overcast
Visibility: 10 miles , 16 km
Cloud details: Overcast 600 ft
2018/02/18 18:13 KUTS 181813Z AUTO 17008KT 10SM OVC006 19/17 A3012 RMK AO2 CIG 005V009 T01940172